sensor_id;sensor_type;location;lat;lon;timestamp;P1;durP1;ratioP1;P2;durP2;ratioP2
11046;SDS011;5576;50.008;10.596;2023-08-20T00:00:27;7.63;;;5.33;;
11046;SDS011;5576;50.008;10.596;2023-08-20T00:02:58;7.70;;;5.13;;
11046;SDS011;5576;50.008;10.596;2023-08-20T00:05:28;6.38;;;5.15;;
11046;SDS011;5576;50.008;10.596;2023-08-20T00:07:54;8.83;;;5.27;;
11046;SDS011;5576;50.008;10.596;2023-08-20T00:10:20;6.07;;;5.45;;
11046;SDS011;5576;50.008;10.596;2023-08-20T00:12:46;6.45;;;5.00;;
11046;SDS011;5576;50.008;10.596;2023-08-20T00:15:11;7.17;;;5.00;;
11046;SDS011;5576;50.008;10.596;2023-08-20T00:17:38;7.07;;;5.07;;
11046;SDS011;5576;50.008;10.596;2023-08-20T00:20:05;8.10;;;4.70;;
11046;SDS011;5576;50.008;10.596;2023-08-20T00:22:35;7.15;;;5.38;;
11046;SDS011;5576;50.008;10.596;2023-08-20T00:25:01;6.15;;;4.65;;
11046;SDS011;5576;50.008;10.596;2023-08-20T00:27:29;8.02;;;5.00;;
11046;SDS011;5576;50.008;10.596;2023-08-20T00:29:55;6.47;;;4.97;;
11046;SDS011;5576;50.008;10.596;2023-08-20T00:32:20;6.47;;;4.75;;
11046;SDS011;5576;50.008;10.596;2023-08-20T00:34:46;6.88;;;5.10;;
11046;SDS011;5576;50.008;10.596;2023-08-20T00:37:12;7.07;;;5.05;;
11046;SDS011;5576;50.008;10.596;2023-08-20T00:39:38;5.27;;;4.77;;
11046;SDS011;5576;50.008;10.596;2023-08-20T00:42:04;8.27;;;5.20;;
11046;SDS011;5576;50.008;10.596;2023-08-20T00:44:31;6.05;;;5.22;;
11046;SDS011;5576;50.008;10.596;2023-08-20T00:46:57;5.70;;;4.80;;
11046;SDS011;5576;50.008;10.596;2023-08-20T00:49:25;6.22;;;5.00;;
11046;SDS011;5576;50.008;10.596;2023-08-20T00:51:51;7.40;;;4.97;;
11046;SDS011;5576;50.008;10.596;2023-08-20T00:54:17;6.20;;;4.90;;
11046;SDS011;5576;50.008;10.596;2023-08-20T00:56:43;6.22;;;5.18;;
11046;SDS011;5576;50.008;10.596;2023-08-20T00:59:09;6.20;;;4.93;;
11046;SDS011;5576;50.008;10.596;2023-08-20T01:01:35;7.10;;;5.10;;
11046;SDS011;5576;50.008;10.596;2023-08-20T01:04:01;7.38;;;5.10;;
11046;SDS011;5576;50.008;10.596;2023-08-20T01:06:35;6.80;;;4.70;;
11046;SDS011;5576;50.008;10.596;2023-08-20T01:09:19;7.13;;;5.20;;
11046;SDS011;5576;50.008;10.596;2023-08-20T01:11:51;5.87;;;4.80;;
11046;SDS011;5576;50.008;10.596;2023-08-20T01:14:24;6.60;;;5.45;;
11046;SDS011;5576;50.008;10.596;2023-08-20T01:16:50;5.22;;;4.75;;
11046;SDS011;5576;50.008;10.596;2023-08-20T01:19:16;5.70;;;5.10;;
11046;SDS011;5576;50.008;10.596;2023-08-20T01:21:47;7.47;;;4.80;;
11046;SDS011;5576;50.008;10.596;2023-08-20T01:30:15;6.38;;;4.90;;
11046;SDS011;5576;50.008;10.596;2023-08-20T01:32:41;5.80;;;4.90;;
11046;SDS011;5576;50.008;10.596;2023-08-20T01:35:11;7.50;;;5.10;;
11046;SDS011;5576;50.008;10.596;2023-08-20T01:37:39;8.25;;;5.30;;
11046;SDS011;5576;50.008;10.596;2023-08-20T01:40:06;6.80;;;5.13;;
11046;SDS011;5576;50.008;10.596;2023-08-20T01:42:35;7.77;;;5.17;;
11046;SDS011;5576;50.008;10.596;2023-08-20T01:45:03;6.85;;;4.93;;
11046;SDS011;5576;50.008;10.596;2023-08-20T01:47:29;6.35;;;5.18;;
11046;SDS011;5576;50.008;10.596;2023-08-20T01:49:55;6.13;;;5.13;;
11046;SDS011;5576;50.008;10.596;2023-08-20T01:52:21;7.97;;;5.32;;
11046;SDS011;5576;50.008;10.596;2023-08-20T01:54:48;5.90;;;5.13;;
11046;SDS011;5576;50.008;10.596;2023-08-20T01:57:14;5.50;;;5.00;;
11046;SDS011;5576;50.008;10.596;2023-08-20T01:59:40;7.97;;;5.00;;
11046;SDS011;5576;50.008;10.596;2023-08-20T02:02:05;6.85;;;5.00;;
11046;SDS011;5576;50.008;10.596;2023-08-20T02:04:32;5.43;;;4.93;;
11046;SDS011;5576;50.008;10.596;2023-08-20T02:06:58;7.75;;;5.32;;
11046;SDS011;5576;50.008;10.596;2023-08-20T02:09:26;6.18;;;5.20;;
11046;SDS011;5576;50.008;10.596;2023-08-20T02:11:52;7.03;;;5.22;;
11046;SDS011;5576;50.008;10.596;2023-08-20T02:14:18;6.13;;;5.50;;
11046;SDS011;5576;50.008;10.596;2023-08-20T02:16:45;6.85;;;5.40;;
11046;SDS011;5576;50.008;10.596;2023-08-20T02:19:11;7.55;;;5.85;;
11046;SDS011;5576;50.008;10.596;2023-08-20T02:21:37;6.27;;;5.60;;
11046;SDS011;5576;50.008;10.596;2023-08-20T02:24:03;7.32;;;5.53;;
11046;SDS011;5576;50.008;10.596;2023-08-20T02:26:30;6.63;;;5.30;;
11046;SDS011;5576;50.008;10.596;2023-08-20T02:28:55;6.47;;;5.85;;
11046;SDS011;5576;50.008;10.596;2023-08-20T02:31:21;7.30;;;5.47;;
11046;SDS011;5576;50.008;10.596;2023-08-20T02:33:47;5.97;;;5.38;;
11046;SDS011;5576;50.008;10.596;2023-08-20T02:36:12;7.13;;;5.53;;
11046;SDS011;5576;50.008;10.596;2023-08-20T02:38:38;6.80;;;5.50;;
11046;SDS011;5576;50.008;10.596;2023-08-20T02:41:04;7.78;;;5.40;;
11046;SDS011;5576;50.008;10.596;2023-08-20T02:43:30;7.75;;;5.53;;
11046;SDS011;5576;50.008;10.596;2023-08-20T02:45:55;7.53;;;5.53;;
11046;SDS011;5576;50.008;10.596;2023-08-20T02:48:21;6.03;;;5.35;;
11046;SDS011;5576;50.008;10.596;2023-08-20T02:50:53;7.43;;;5.50;;
11046;SDS011;5576;50.008;10.596;2023-08-20T02:53:19;6.63;;;5.50;;
11046;SDS011;5576;50.008;10.596;2023-08-20T02:55:45;8.30;;;5.43;;
11046;SDS011;5576;50.008;10.596;2023-08-20T02:58:12;8.48;;;5.25;;
11046;SDS011;5576;50.008;10.596;2023-08-20T03:00:38;6.03;;;5.33;;
11046;SDS011;5576;50.008;10.596;2023-08-20T03:03:04;7.50;;;5.82;;
11046;SDS011;5576;50.008;10.596;2023-08-20T03:05:33;7.35;;;5.60;;
11046;SDS011;5576;50.008;10.596;2023-08-20T03:08:00;6.78;;;5.47;;
11046;SDS011;5576;50.008;10.596;2023-08-20T03:10:26;6.88;;;5.53;;
11046;SDS011;5576;50.008;10.596;2023-08-20T03:12:53;7.53;;;5.93;;
11046;SDS011;5576;50.008;10.596;2023-08-20T03:15:18;6.50;;;5.70;;
11046;SDS011;5576;50.008;10.596;2023-08-20T03:17:44;6.60;;;5.90;;
11046;SDS011;5576;50.008;10.596;2023-08-20T03:20:10;7.88;;;5.90;;
11046;SDS011;5576;50.008;10.596;2023-08-20T03:22:36;8.47;;;5.60;;
11046;SDS011;5576;50.008;10.596;2023-08-20T03:25:03;7.07;;;5.68;;
11046;SDS011;5576;50.008;10.596;2023-08-20T03:27:29;9.05;;;6.13;;
11046;SDS011;5576;50.008;10.596;2023-08-20T03:29:55;6.33;;;5.50;;
11046;SDS011;5576;50.008;10.596;2023-08-20T03:32:21;7.03;;;5.57;;
11046;SDS011;5576;50.008;10.596;2023-08-20T03:34:48;7.60;;;6.15;;
11046;SDS011;5576;50.008;10.596;2023-08-20T03:37:17;7.68;;;5.80;;
11046;SDS011;5576;50.008;10.596;2023-08-20T03:39:43;6.57;;;5.70;;
11046;SDS011;5576;50.008;10.596;2023-08-20T03:42:08;6.63;;;5.32;;
11046;SDS011;5576;50.008;10.596;2023-08-20T03:44:34;8.10;;;5.80;;
11046;SDS011;5576;50.008;10.596;2023-08-20T03:47:00;6.40;;;5.80;;
11046;SDS011;5576;50.008;10.596;2023-08-20T03:49:26;6.20;;;5.57;;
11046;SDS011;5576;50.008;10.596;2023-08-20T03:51:52;6.45;;;5.75;;
11046;SDS011;5576;50.008;10.596;2023-08-20T03:54:17;8.40;;;5.87;;
11046;SDS011;5576;50.008;10.596;2023-08-20T03:56:43;6.73;;;5.70;;
11046;SDS011;5576;50.008;10.596;2023-08-20T03:59:09;6.35;;;5.75;;
11046;SDS011;5576;50.008;10.596;2023-08-20T04:01:34;7.70;;;5.50;;
11046;SDS011;5576;50.008;10.596;2023-08-20T04:04:02;8.00;;;6.03;;
11046;SDS011;5576;50.008;10.596;2023-08-20T04:06:28;6.53;;;5.73;;
11046;SDS011;5576;50.008;10.596;2023-08-20T04:08:54;6.53;;;5.93;;
11046;SDS011;5576;50.008;10.596;2023-08-20T04:11:20;6.23;;;5.63;;
11046;SDS011;5576;50.008;10.596;2023-08-20T04:13:46;7.95;;;6.07;;
11046;SDS011;5576;50.008;10.596;2023-08-20T04:16:12;6.40;;;5.80;;
11046;SDS011;5576;50.008;10.596;2023-08-20T04:18:39;7.40;;;5.95;;
11046;SDS011;5576;50.008;10.596;2023-08-20T04:21:05;6.85;;;5.60;;
11046;SDS011;5576;50.008;10.596;2023-08-20T04:23:32;6.65;;;5.70;;
11046;SDS011;5576;50.008;10.596;2023-08-20T04:25:59;6.95;;;5.80;;
11046;SDS011;5576;50.008;10.596;2023-08-20T04:28:24;7.27;;;5.67;;
11046;SDS011;5576;50.008;10.596;2023-08-20T04:30:52;7.97;;;5.95;;
11046;SDS011;5576;50.008;10.596;2023-08-20T04:33:20;6.33;;;5.53;;
11046;SDS011;5576;50.008;10.596;2023-08-20T04:35:46;7.20;;;5.55;;
11046;SDS011;5576;50.008;10.596;2023-08-20T04:38:16;6.32;;;5.72;;
11046;SDS011;5576;50.008;10.596;2023-08-20T04:40:42;6.75;;;5.57;;
11046;SDS011;5576;50.008;10.596;2023-08-20T04:43:10;6.78;;;6.07;;
11046;SDS011;5576;50.008;10.596;2023-08-20T04:45:37;7.53;;;6.00;;
11046;SDS011;5576;50.008;10.596;2023-08-20T04:48:02;6.30;;;5.70;;
11046;SDS011;5576;50.008;10.596;2023-08-20T04:50:29;7.37;;;5.67;;
11046;SDS011;5576;50.008;10.596;2023-08-20T04:52:55;7.90;;;5.80;;
11046;SDS011;5576;50.008;10.596;2023-08-20T04:55:21;6.93;;;6.10;;
11046;SDS011;5576;50.008;10.596;2023-08-20T04:57:48;6.77;;;6.07;;
11046;SDS011;5576;50.008;10.596;2023-08-20T05:00:14;6.68;;;6.05;;
11046;SDS011;5576;50.008;10.596;2023-08-20T05:02:44;6.60;;;5.90;;
11046;SDS011;5576;50.008;10.596;2023-08-20T05:05:13;6.97;;;6.00;;
11046;SDS011;5576;50.008;10.596;2023-08-20T05:07:39;6.72;;;5.90;;
11046;SDS011;5576;50.008;10.596;2023-08-20T05:10:06;7.78;;;6.45;;
11046;SDS011;5576;50.008;10.596;2023-08-20T05:12:33;6.97;;;6.00;;
11046;SDS011;5576;50.008;10.596;2023-08-20T05:15:00;6.93;;;6.27;;
11046;SDS011;5576;50.008;10.596;2023-08-20T05:17:25;7.03;;;5.85;;
11046;SDS011;5576;50.008;10.596;2023-08-20T05:19:51;7.47;;;6.53;;
11046;SDS011;5576;50.008;10.596;2023-08-20T05:22:17;6.68;;;5.82;;
11046;SDS011;5576;50.008;10.596;2023-08-20T05:24:43;7.55;;;6.22;;
11046;SDS011;5576;50.008;10.596;2023-08-20T05:27:16;7.13;;;6.43;;
11046;SDS011;5576;50.008;10.596;2023-08-20T05:29:44;7.18;;;6.47;;
11046;SDS011;5576;50.008;10.596;2023-08-20T05:32:11;6.95;;;6.13;;
11046;SDS011;5576;50.008;10.596;2023-08-20T05:34:36;6.80;;;6.10;;
11046;SDS011;5576;50.008;10.596;2023-08-20T05:37:02;7.10;;;6.40;;
11046;SDS011;5576;50.008;10.596;2023-08-20T05:39:29;6.90;;;5.97;;
11046;SDS011;5576;50.008;10.596;2023-08-20T05:41:55;7.10;;;6.38;;
11046;SDS011;5576;50.008;10.596;2023-08-20T05:44:23;7.03;;;6.30;;
11046;SDS011;5576;50.008;10.596;2023-08-20T05:46:49;7.75;;;6.22;;
11046;SDS011;5576;50.008;10.596;2023-08-20T05:49:16;8.15;;;6.93;;
11046;SDS011;5576;50.008;10.596;2023-08-20T05:51:43;8.03;;;7.13;;
11046;SDS011;5576;50.008;10.596;2023-08-20T05:54:09;8.30;;;7.50;;
11046;SDS011;5576;50.008;10.596;2023-08-20T05:56:36;7.55;;;6.85;;
11046;SDS011;5576;50.008;10.596;2023-08-20T05:59:02;8.10;;;7.40;;
11046;SDS011;5576;50.008;10.596;2023-08-20T06:01:28;8.50;;;7.60;;
11046;SDS011;5576;50.008;10.596;2023-08-20T06:03:54;8.63;;;7.78;;
11046;SDS011;5576;50.008;10.596;2023-08-20T06:06:20;8.27;;;7.57;;
11046;SDS011;5576;50.008;10.596;2023-08-20T06:08:47;8.75;;;7.80;;
11046;SDS011;5576;50.008;10.596;2023-08-20T06:11:13;7.97;;;7.15;;
11046;SDS011;5576;50.008;10.596;2023-08-20T06:13:38;7.90;;;7.10;;
11046;SDS011;5576;50.008;10.596;2023-08-20T06:16:04;8.70;;;6.80;;
11046;SDS011;5576;50.008;10.596;2023-08-20T06:18:30;8.00;;;6.80;;
11046;SDS011;5576;50.008;10.596;2023-08-20T06:20:55;7.75;;;7.03;;
11046;SDS011;5576;50.008;10.596;2023-08-20T06:23:21;7.72;;;6.93;;
11046;SDS011;5576;50.008;10.596;2023-08-20T06:25:47;8.30;;;7.00;;
11046;SDS011;5576;50.008;10.596;2023-08-20T06:28:15;7.57;;;6.88;;
11046;SDS011;5576;50.008;10.596;2023-08-20T06:30:40;7.88;;;7.07;;
11046;SDS011;5576;50.008;10.596;2023-08-20T06:33:06;8.70;;;7.80;;
11046;SDS011;5576;50.008;10.596;2023-08-20T06:35:32;8.07;;;7.27;;
11046;SDS011;5576;50.008;10.596;2023-08-20T06:37:59;8.77;;;7.63;;
11046;SDS011;5576;50.008;10.596;2023-08-20T06:40:25;7.95;;;7.20;;
11046;SDS011;5576;50.008;10.596;2023-08-20T06:42:50;8.65;;;7.55;;
11046;SDS011;5576;50.008;10.596;2023-08-20T06:45:16;8.20;;;7.30;;
11046;SDS011;5576;50.008;10.596;2023-08-20T06:47:42;8.33;;;7.53;;
11046;SDS011;5576;50.008;10.596;2023-08-20T06:50:07;8.70;;;7.65;;
11046;SDS011;5576;50.008;10.596;2023-08-20T06:52:33;8.40;;;7.53;;
11046;SDS011;5576;50.008;10.596;2023-08-20T06:54:59;10.13;;;7.50;;
11046;SDS011;5576;50.008;10.596;2023-08-20T06:57:25;8.50;;;7.70;;
11046;SDS011;5576;50.008;10.596;2023-08-20T06:59:52;8.68;;;7.82;;
11046;SDS011;5576;50.008;10.596;2023-08-20T07:02:17;8.68;;;7.88;;
11046;SDS011;5576;50.008;10.596;2023-08-20T07:04:43;8.37;;;7.43;;
11046;SDS011;5576;50.008;10.596;2023-08-20T07:07:09;8.68;;;7.80;;
11046;SDS011;5576;50.008;10.596;2023-08-20T07:09:35;8.30;;;7.47;;
11046;SDS011;5576;50.008;10.596;2023-08-20T07:12:03;8.38;;;7.57;;
11046;SDS011;5576;50.008;10.596;2023-08-20T07:14:29;7.70;;;6.75;;
11046;SDS011;5576;50.008;10.596;2023-08-20T07:16:55;8.77;;;7.88;;
11046;SDS011;5576;50.008;10.596;2023-08-20T07:19:20;9.37;;;7.27;;
11046;SDS011;5576;50.008;10.596;2023-08-20T07:21:46;8.65;;;7.78;;
11046;SDS011;5576;50.008;10.596;2023-08-20T07:24:12;9.63;;;7.88;;
11046;SDS011;5576;50.008;10.596;2023-08-20T07:26:38;8.73;;;7.82;;
11046;SDS011;5576;50.008;10.596;2023-08-20T07:29:04;8.50;;;7.70;;
11046;SDS011;5576;50.008;10.596;2023-08-20T07:31:30;9.50;;;8.25;;
11046;SDS011;5576;50.008;10.596;2023-08-20T07:33:58;8.90;;;8.00;;
11046;SDS011;5576;50.008;10.596;2023-08-20T07:36:25;9.18;;;8.27;;
11046;SDS011;5576;50.008;10.596;2023-08-20T07:38:51;8.73;;;7.83;;
11046;SDS011;5576;50.008;10.596;2023-08-20T07:41:18;8.20;;;7.40;;
11046;SDS011;5576;50.008;10.596;2023-08-20T07:43:46;8.75;;;7.93;;
11046;SDS011;5576;50.008;10.596;2023-08-20T07:46:12;8.57;;;7.78;;
11046;SDS011;5576;50.008;10.596;2023-08-20T07:48:38;8.53;;;7.57;;
11046;SDS011;5576;50.008;10.596;2023-08-20T07:51:05;8.52;;;7.72;;
11046;SDS011;5576;50.008;10.596;2023-08-20T07:53:31;8.82;;;7.45;;
11046;SDS011;5576;50.008;10.596;2023-08-20T07:55:57;7.88;;;7.18;;
11046;SDS011;5576;50.008;10.596;2023-08-20T07:58:25;7.80;;;7.07;;
11046;SDS011;5576;50.008;10.596;2023-08-20T08:00:51;9.50;;;8.15;;
11046;SDS011;5576;50.008;10.596;2023-08-20T08:03:17;9.67;;;7.97;;
11046;SDS011;5576;50.008;10.596;2023-08-20T08:05:46;9.20;;;8.30;;
11046;SDS011;5576;50.008;10.596;2023-08-20T08:08:13;9.27;;;8.38;;
11046;SDS011;5576;50.008;10.596;2023-08-20T08:10:40;8.30;;;7.53;;
11046;SDS011;5576;50.008;10.596;2023-08-20T08:13:06;10.27;;;8.27;;
11046;SDS011;5576;50.008;10.596;2023-08-20T08:15:31;9.60;;;7.77;;
11046;SDS011;5576;50.008;10.596;2023-08-20T08:17:57;8.80;;;7.95;;
11046;SDS011;5576;50.008;10.596;2023-08-20T08:20:23;9.13;;;8.15;;
11046;SDS011;5576;50.008;10.596;2023-08-20T08:22:49;9.27;;;8.37;;
11046;SDS011;5576;50.008;10.596;2023-08-20T08:25:14;9.10;;;8.17;;
11046;SDS011;5576;50.008;10.596;2023-08-20T08:27:40;9.35;;;8.45;;
11046;SDS011;5576;50.008;10.596;2023-08-20T08:30:06;9.70;;;7.85;;
11046;SDS011;5576;50.008;10.596;2023-08-20T08:32:32;9.43;;;8.10;;
11046;SDS011;5576;50.008;10.596;2023-08-20T08:34:57;9.33;;;7.40;;
11046;SDS011;5576;50.008;10.596;2023-08-20T08:37:23;9.23;;;8.30;;
11046;SDS011;5576;50.008;10.596;2023-08-20T08:39:49;9.10;;;8.20;;
11046;SDS011;5576;50.008;10.596;2023-08-20T08:42:14;9.15;;;7.78;;
11046;SDS011;5576;50.008;10.596;2023-08-20T08:44:43;9.02;;;8.20;;
11046;SDS011;5576;50.008;10.596;2023-08-20T08:47:10;9.85;;;8.50;;
11046;SDS011;5576;50.008;10.596;2023-08-20T08:49:36;10.13;;;9.00;;
11046;SDS011;5576;50.008;10.596;2023-08-20T08:52:03;9.63;;;8.45;;
11046;SDS011;5576;50.008;10.596;2023-08-20T08:54:29;9.32;;;8.43;;
11046;SDS011;5576;50.008;10.596;2023-08-20T08:56:57;9.60;;;8.60;;
11046;SDS011;5576;50.008;10.596;2023-08-20T08:59:23;9.83;;;8.87;;
11046;SDS011;5576;50.008;10.596;2023-08-20T09:01:49;9.73;;;8.77;;
11046;SDS011;5576;50.008;10.596;2023-08-20T09:04:15;10.33;;;8.30;;
11046;SDS011;5576;50.008;10.596;2023-08-20T09:06:49;9.20;;;8.30;;
11046;SDS011;5576;50.008;10.596;2023-08-20T09:09:17;9.02;;;8.13;;
11046;SDS011;5576;50.008;10.596;2023-08-20T09:11:44;8.52;;;7.72;;
11046;SDS011;5576;50.008;10.596;2023-08-20T09:16:58;9.18;;;8.25;;
11046;SDS011;5576;50.008;10.596;2023-08-20T09:19:29;8.63;;;7.72;;
11046;SDS011;5576;50.008;10.596;2023-08-20T09:22:00;8.47;;;7.67;;
11046;SDS011;5576;50.008;10.596;2023-08-20T09:24:32;8.40;;;7.60;;
11046;SDS011;5576;50.008;10.596;2023-08-20T09:27:01;9.25;;;7.78;;
11046;SDS011;5576;50.008;10.596;2023-08-20T09:29:31;9.18;;;8.18;;
11046;SDS011;5576;50.008;10.596;2023-08-20T09:32:00;9.20;;;7.93;;
11046;SDS011;5576;50.008;10.596;2023-08-20T09:34:37;8.68;;;7.80;;
11046;SDS011;5576;50.008;10.596;2023-08-20T09:37:07;10.07;;;8.50;;
11046;SDS011;5576;50.008;10.596;2023-08-20T09:39:34;10.65;;;8.13;;
11046;SDS011;5576;50.008;10.596;2023-08-20T09:42:00;8.30;;;7.50;;
11046;SDS011;5576;50.008;10.596;2023-08-20T09:44:28;11.18;;;8.35;;
11046;SDS011;5576;50.008;10.596;2023-08-20T09:47:01;8.80;;;7.50;;
11046;SDS011;5576;50.008;10.596;2023-08-20T09:49:29;8.68;;;7.47;;
11046;SDS011;5576;50.008;10.596;2023-08-20T09:51:59;8.57;;;7.53;;
11046;SDS011;5576;50.008;10.596;2023-08-20T09:54:35;8.23;;;7.40;;
11046;SDS011;5576;50.008;10.596;2023-08-20T09:57:18;7.93;;;7.13;;
11046;SDS011;5576;50.008;10.596;2023-08-20T09:59:51;8.27;;;7.07;;
11046;SDS011;5576;50.008;10.596;2023-08-20T10:02:17;7.77;;;7.00;;
11046;SDS011;5576;50.008;10.596;2023-08-20T10:04:44;9.02;;;6.90;;
11046;SDS011;5576;50.008;10.596;2023-08-20T10:07:11;8.20;;;7.40;;
11046;SDS011;5576;50.008;10.596;2023-08-20T10:09:38;8.93;;;7.82;;
11046;SDS011;5576;50.008;10.596;2023-08-20T10:12:05;9.23;;;7.82;;
11046;SDS011;5576;50.008;10.596;2023-08-20T10:14:31;8.57;;;7.57;;
11046;SDS011;5576;50.008;10.596;2023-08-20T10:16:57;8.30;;;7.47;;
11046;SDS011;5576;50.008;10.596;2023-08-20T10:19:25;8.05;;;7.25;;
11046;SDS011;5576;50.008;10.596;2023-08-20T10:21:52;8.37;;;7.07;;
11046;SDS011;5576;50.008;10.596;2023-08-20T10:24:18;8.60;;;7.80;;
11046;SDS011;5576;50.008;10.596;2023-08-20T10:26:46;7.80;;;7.00;;
11046;SDS011;5576;50.008;10.596;2023-08-20T10:29:34;8.63;;;7.13;;
11046;SDS011;5576;50.008;10.596;2023-08-20T10:32:04;8.10;;;7.13;;
11046;SDS011;5576;50.008;10.596;2023-08-20T10:34:38;9.25;;;7.00;;
11046;SDS011;5576;50.008;10.596;2023-08-20T10:37:08;8.60;;;7.07;;
11046;SDS011;5576;50.008;10.596;2023-08-20T10:39:37;7.97;;;7.18;;
11046;SDS011;5576;50.008;10.596;2023-08-20T10:42:25;8.60;;;7.70;;
11046;SDS011;5576;50.008;10.596;2023-08-20T10:44:59;9.57;;;7.32;;
11046;SDS011;5576;50.008;10.596;2023-08-20T10:47:44;8.80;;;7.65;;
11046;SDS011;5576;50.008;10.596;2023-08-20T10:50:16;8.38;;;7.57;;
11046;SDS011;5576;50.008;10.596;2023-08-20T10:52:55;11.48;;;8.00;;
11046;SDS011;5576;50.008;10.596;2023-08-20T10:55:21;8.30;;;7.32;;
11046;SDS011;5576;50.008;10.596;2023-08-20T10:57:54;9.52;;;7.88;;
11046;SDS011;5576;50.008;10.596;2023-08-20T11:00:22;8.48;;;7.53;;
11046;SDS011;5576;50.008;10.596;2023-08-20T11:02:47;9.40;;;8.40;;
11046;SDS011;5576;50.008;10.596;2023-08-20T11:05:16;9.50;;;8.50;;
11046;SDS011;5576;50.008;10.596;2023-08-20T11:07:44;10.00;;;9.10;;
11046;SDS011;5576;50.008;10.596;2023-08-20T11:10:13;8.95;;;7.80;;
11046;SDS011;5576;50.008;10.596;2023-08-20T11:12:40;7.93;;;7.23;;
11046;SDS011;5576;50.008;10.596;2023-08-20T11:15:07;10.90;;;9.15;;
11046;SDS011;5576;50.008;10.596;2023-08-20T11:17:34;8.95;;;8.02;;
11046;SDS011;5576;50.008;10.596;2023-08-20T11:20:05;11.02;;;9.65;;
11046;SDS011;5576;50.008;10.596;2023-08-20T11:22:32;9.70;;;8.77;;
11046;SDS011;5576;50.008;10.596;2023-08-20T11:24:59;9.20;;;7.10;;
11046;SDS011;5576;50.008;10.596;2023-08-20T11:27:26;9.75;;;8.13;;
11046;SDS011;5576;50.008;10.596;2023-08-20T11:29:52;9.85;;;7.35;;
11046;SDS011;5576;50.008;10.596;2023-08-20T11:32:19;7.82;;;6.93;;
11046;SDS011;5576;50.008;10.596;2023-08-20T11:34:44;7.97;;;6.93;;
11046;SDS011;5576;50.008;10.596;2023-08-20T11:37:10;8.98;;;6.82;;
11046;SDS011;5576;50.008;10.596;2023-08-20T11:39:36;12.25;;;10.18;;
11046;SDS011;5576;50.008;10.596;2023-08-20T11:42:02;7.07;;;5.93;;
11046;SDS011;5576;50.008;10.596;2023-08-20T11:44:28;6.53;;;5.85;;
11046;SDS011;5576;50.008;10.596;2023-08-20T11:46:54;6.57;;;5.97;;
11046;SDS011;5576;50.008;10.596;2023-08-20T11:49:26;7.45;;;6.75;;
11046;SDS011;5576;50.008;10.596;2023-08-20T11:51:55;8.15;;;6.70;;
11046;SDS011;5576;50.008;10.596;2023-08-20T11:54:21;7.55;;;6.85;;
11046;SDS011;5576;50.008;10.596;2023-08-20T11:56:48;7.80;;;6.82;;
11046;SDS011;5576;50.008;10.596;2023-08-20T11:59:16;8.13;;;6.63;;
11046;SDS011;5576;50.008;10.596;2023-08-20T12:01:42;7.60;;;6.50;;
11046;SDS011;5576;50.008;10.596;2023-08-20T12:04:09;7.10;;;6.40;;
11046;SDS011;5576;50.008;10.596;2023-08-20T12:06:36;8.23;;;6.90;;
11046;SDS011;5576;50.008;10.596;2023-08-20T12:09:18;10.25;;;7.00;;
11046;SDS011;5576;50.008;10.596;2023-08-20T12:11:54;7.32;;;6.47;;
11046;SDS011;5576;50.008;10.596;2023-08-20T12:14:21;9.35;;;6.70;;
11046;SDS011;5576;50.008;10.596;2023-08-20T12:16:47;6.68;;;6.07;;
11046;SDS011;5576;50.008;10.596;2023-08-20T12:19:16;8.13;;;6.83;;
11046;SDS011;5576;50.008;10.596;2023-08-20T12:21:42;7.90;;;6.70;;
11046;SDS011;5576;50.008;10.596;2023-08-20T12:24:09;7.53;;;6.80;;
11046;SDS011;5576;50.008;10.596;2023-08-20T12:26:36;9.52;;;6.45;;
11046;SDS011;5576;50.008;10.596;2023-08-20T12:29:02;7.20;;;6.60;;
11046;SDS011;5576;50.008;10.596;2023-08-20T12:31:28;7.88;;;6.53;;
11046;SDS011;5576;50.008;10.596;2023-08-20T12:33:54;7.60;;;6.57;;
11046;SDS011;5576;50.008;10.596;2023-08-20T12:36:19;8.47;;;6.83;;
11046;SDS011;5576;50.008;10.596;2023-08-20T12:38:45;9.32;;;6.63;;
11046;SDS011;5576;50.008;10.596;2023-08-20T12:41:11;9.30;;;7.13;;
11046;SDS011;5576;50.008;10.596;2023-08-20T12:43:37;8.18;;;6.60;;
11046;SDS011;5576;50.008;10.596;2023-08-20T12:46:03;9.50;;;7.07;;
11046;SDS011;5576;50.008;10.596;2023-08-20T12:48:29;7.30;;;6.70;;
11046;SDS011;5576;50.008;10.596;2023-08-20T12:50:55;7.73;;;6.93;;
11046;SDS011;5576;50.008;10.596;2023-08-20T12:53:21;8.05;;;7.25;;
11046;SDS011;5576;50.008;10.596;2023-08-20T12:55:47;7.55;;;6.85;;
11046;SDS011;5576;50.008;10.596;2023-08-20T12:58:13;8.20;;;6.87;;
11046;SDS011;5576;50.008;10.596;2023-08-20T13:00:39;8.52;;;6.65;;
11046;SDS011;5576;50.008;10.596;2023-08-20T13:03:05;7.90;;;6.82;;
11046;SDS011;5576;50.008;10.596;2023-08-20T13:05:31;7.57;;;6.60;;
11046;SDS011;5576;50.008;10.596;2023-08-20T13:07:57;8.85;;;6.88;;
11046;SDS011;5576;50.008;10.596;2023-08-20T13:10:23;7.82;;;6.90;;
11046;SDS011;5576;50.008;10.596;2023-08-20T13:12:52;7.50;;;6.80;;
11046;SDS011;5576;50.008;10.596;2023-08-20T13:15:20;7.40;;;6.70;;
11046;SDS011;5576;50.008;10.596;2023-08-20T13:17:48;7.70;;;6.88;;
11046;SDS011;5576;50.008;10.596;2023-08-20T13:20:15;7.75;;;6.68;;
11046;SDS011;5576;50.008;10.596;2023-08-20T13:22:48;7.90;;;7.10;;
11046;SDS011;5576;50.008;10.596;2023-08-20T13:25:14;7.68;;;6.70;;
11046;SDS011;5576;50.008;10.596;2023-08-20T13:27:40;8.50;;;6.95;;
11046;SDS011;5576;50.008;10.596;2023-08-20T13:30:07;9.83;;;6.87;;
11046;SDS011;5576;50.008;10.596;2023-08-20T13:32:34;8.02;;;7.00;;
11046;SDS011;5576;50.008;10.596;2023-08-20T13:35:00;7.90;;;6.57;;
11046;SDS011;5576;50.008;10.596;2023-08-20T13:37:25;8.10;;;6.80;;
11046;SDS011;5576;50.008;10.596;2023-08-20T13:39:52;8.98;;;6.70;;
11046;SDS011;5576;50.008;10.596;2023-08-20T13:42:18;7.40;;;6.20;;
11046;SDS011;5576;50.008;10.596;2023-08-20T13:44:43;6.93;;;6.27;;
11046;SDS011;5576;50.008;10.596;2023-08-20T13:47:09;8.88;;;6.20;;
11046;SDS011;5576;50.008;10.596;2023-08-20T13:49:35;9.15;;;6.40;;
11046;SDS011;5576;50.008;10.596;2023-08-20T13:52:00;9.05;;;6.32;;
11046;SDS011;5576;50.008;10.596;2023-08-20T13:54:26;7.45;;;5.72;;
11046;SDS011;5576;50.008;10.596;2023-08-20T13:56:52;6.55;;;5.80;;
11046;SDS011;5576;50.008;10.596;2023-08-20T13:59:18;6.05;;;5.50;;
11046;SDS011;5576;50.008;10.596;2023-08-20T14:01:44;7.32;;;6.07;;
11046;SDS011;5576;50.008;10.596;2023-08-20T14:04:10;7.10;;;5.97;;
11046;SDS011;5576;50.008;10.596;2023-08-20T14:06:39;6.18;;;5.57;;
11046;SDS011;5576;50.008;10.596;2023-08-20T14:09:04;6.63;;;5.70;;
11046;SDS011;5576;50.008;10.596;2023-08-20T14:11:30;7.67;;;5.53;;
11046;SDS011;5576;50.008;10.596;2023-08-20T14:13:56;6.67;;;5.60;;
11046;SDS011;5576;50.008;10.596;2023-08-20T14:16:22;8.83;;;5.40;;
11046;SDS011;5576;50.008;10.596;2023-08-20T14:18:47;8.45;;;5.57;;
11046;SDS011;5576;50.008;10.596;2023-08-20T14:21:13;7.18;;;5.32;;
11046;SDS011;5576;50.008;10.596;2023-08-20T14:23:39;7.47;;;5.60;;
11046;SDS011;5576;50.008;10.596;2023-08-20T14:26:06;7.20;;;5.53;;
11046;SDS011;5576;50.008;10.596;2023-08-20T14:28:32;6.10;;;5.00;;
11046;SDS011;5576;50.008;10.596;2023-08-20T14:31:02;6.38;;;5.18;;
11046;SDS011;5576;50.008;10.596;2023-08-20T14:33:29;7.40;;;5.13;;
11046;SDS011;5576;50.008;10.596;2023-08-20T14:36:00;7.53;;;5.38;;
11046;SDS011;5576;50.008;10.596;2023-08-20T14:38:28;6.32;;;5.00;;
11046;SDS011;5576;50.008;10.596;2023-08-20T14:40:58;6.43;;;5.30;;
11046;SDS011;5576;50.008;10.596;2023-08-20T14:43:25;5.78;;;5.03;;
11046;SDS011;5576;50.008;10.596;2023-08-20T14:45:51;5.38;;;4.88;;
11046;SDS011;5576;50.008;10.596;2023-08-20T14:48:20;6.32;;;4.85;;
11046;SDS011;5576;50.008;10.596;2023-08-20T14:50:47;8.60;;;5.40;;
11046;SDS011;5576;50.008;10.596;2023-08-20T14:53:13;5.25;;;4.68;;
11046;SDS011;5576;50.008;10.596;2023-08-20T14:55:39;7.90;;;5.30;;